Terminal Aerodrome Forecast
Issued by NWS

Home | Current Version | Previous Version | Text Only | Print | Product List | Glossary On
Versions: 1 2 3 4 5 6 7 8 9 10 11 12 13 14 15 16
000
FTUS43 KILX 192322
TAFDEC
TAF
KDEC 192322Z 2000/2024 34006KT 2SM -RA BR SCT005 BKN008 OVC020
      TEMPO 2001/2005 3/4SM RA BR OVC004
     FM200500 25008KT 4SM -RA BR OVC008
     FM200700 24008KT 5SM BR VCSH OVC030
     FM201000 28015KT P6SM OVC012
     FM201400 29018KT P6SM SCT015 BKN060
     FM201600 29020G28KT P6SM SCT040=

USA.gov is the U.S. government's official web portal to all federal, state and local government web resources and services.